»·PEaware :: AAL1925 KLAX-KPHX

AAL1925 :: KLAX-KPHX

FLIGHT INFORMATION

Flight Status: Arrived
Operator:
American Airlines
More flights by this operator :: More flights under this callsign
Pilot: Patricio R. (14780)
Aircraft: BOEING 737-800
(B738)
More flights by this aircraft type
Origin: KLAX Los Angeles Intl
United States
Destination: KPHX Phoenix Sky Harbor Intl
United States
More flights between these airports :: More routes between these airports
Route: DOTSS2 CNERY BLH HYDRR1
File this flight plan on PilotEdge
Remarks:
Altitude:
(Current/Filed)
33,000ft
Speed:
(Current/Filed)
465kts
Departed: 09-Aug-18 01:26 PM
Arrived: 09-Aug-18 02:34 PM
Distance/Time
Traveled:
321nm/1:07
Distance/Time
To Go:
Arrived

Flight Plot

Page will automatically refresh every two minutes.

Flight plan parsing failed; only flown route is shown


Map Options




Map Legend


Flown Route
Filed Route
Departure Airport
Arrival Airport
Navaid (VOR, NDB)
Fix

Horizontal Profiles

Position Reports

Time Latitude Longitude Heading Altitude Ground
Speed
09-Aug-18 13:09 33.941041 -118.405056 83 124ft 0kts
09-Aug-18 13:10 33.941041 -118.405056 83 124ft 0kts
09-Aug-18 13:11 33.941041 -118.405056 83 124ft 0kts
09-Aug-18 13:12 33.941041 -118.405056 83 124ft 0kts
09-Aug-18 13:13 33.941041 -118.405056 83 124ft 0kts
09-Aug-18 13:14 33.941041 -118.405056 83 124ft 0kts
09-Aug-18 13:15 33.941041 -118.405056 83 124ft 0kts
09-Aug-18 13:16 33.941041 -118.405056 83 124ft 0kts
09-Aug-18 13:17 33.941040 -118.405059 83 124ft 0kts
09-Aug-18 13:18 33.941230 -118.405651 167 124ft 1kts
09-Aug-18 13:19 33.941322 -118.405664 173 123ft 0kts
09-Aug-18 13:20 33.941314 -118.405663 173 123ft 0kts
09-Aug-18 13:21 33.939144 -118.404466 83 126ft 13kts
09-Aug-18 13:22 33.939785 -118.398226 84 115ft 12kts
09-Aug-18 13:23 33.939346 -118.394455 84 109ft 16kts
09-Aug-18 13:24 33.940047 -118.387548 83 105ft 19kts
09-Aug-18 13:25 33.940703 -118.381131 83 100ft 18kts
09-Aug-18 13:26 33.939877 -118.380204 247 99ft 11kts
09-Aug-18 13:27 33.936027 -118.416018 263 1123ft 158kts
09-Aug-18 13:28 33.921009 -118.478960 234 2496ft 252kts
09-Aug-18 13:29 33.874327 -118.544250 223 5909ft 270kts
09-Aug-18 13:30 33.798670 -118.550559 166 8886ft 300kts
09-Aug-18 13:31 33.716529 -118.522825 145 11490ft 322kts
09-Aug-18 13:32 33.670273 -118.433312 108 14322ft 331kts
09-Aug-18 13:33 33.641930 -118.326528 92 17043ft 344kts
09-Aug-18 13:34 33.643160 -118.209885 88 19524ft 359kts
09-Aug-18 13:35 33.643642 -118.089520 88 21728ft 375kts
09-Aug-18 13:36 33.643686 -117.964438 88 23744ft 388kts
09-Aug-18 13:37 33.643502 -117.835881 88 25582ft 401kts
09-Aug-18 13:38 33.622565 -117.704039 104 27252ft 417kts
09-Aug-18 13:39 33.589122 -117.569911 105 28813ft 429kts
09-Aug-18 13:40 33.555098 -117.433635 105 30544ft 431kts
09-Aug-18 13:41 33.521552 -117.299669 106 32247ft 429kts
09-Aug-18 13:42 33.502424 -117.159918 89 32976ft 442kts
09-Aug-18 13:43 33.500894 -117.009656 90 32991ft 467kts
09-Aug-18 13:44 33.498791 -116.853674 91 33007ft 466kts
09-Aug-18 13:45 33.496362 -116.698796 91 33010ft 467kts
09-Aug-18 13:46 33.493708 -116.544062 91 32990ft 466kts
09-Aug-18 13:47 33.490958 -116.389017 91 32949ft 466kts
09-Aug-18 13:48 33.488681 -116.234873 91 32944ft 466kts
09-Aug-18 13:49 33.486192 -116.079845 91 32944ft 466kts
09-Aug-18 13:50 33.515112 -115.929681 70 32945ft 468kts
09-Aug-18 13:51 33.558540 -115.782794 70 32945ft 467kts
09-Aug-18 13:52 33.601348 -115.636063 70 32945ft 467kts
09-Aug-18 13:53 33.619115 -115.486189 100 32969ft 466kts
09-Aug-18 13:54 33.612041 -115.331013 92 32961ft 465kts
09-Aug-18 13:55 33.607839 -115.176189 92 32989ft 466kts
09-Aug-18 13:56 33.603449 -115.020601 92 32991ft 471kts
09-Aug-18 13:57 33.598834 -114.863381 91 32989ft 471kts
09-Aug-18 13:58 33.586972 -114.707647 102 32535ft 465kts
09-Aug-18 13:59 33.557459 -114.558597 102 30163ft 457kts
09-Aug-18 14:00 33.528666 -114.413414 102 27965ft 440kts
09-Aug-18 14:01 33.502535 -114.281920 102 25894ft 425kts
09-Aug-18 14:02 33.475573 -114.146906 102 23689ft 410kts
09-Aug-18 14:03 33.449413 -114.016801 102 22332ft 401kts
09-Aug-18 14:04 33.423549 -113.888881 102 21131ft 391kts
09-Aug-18 14:05 33.398238 -113.763720 102 19932ft 384kts
09-Aug-18 14:06 33.377407 -113.661111 102 18930ft 377kts
09-Aug-18 14:07 33.348745 -113.520516 101 17529ft 371kts
09-Aug-18 14:08 33.329464 -113.421665 99 16595ft 362kts
09-Aug-18 14:09 33.309439 -113.305039 100 15595ft 352kts
09-Aug-18 14:10 33.288719 -113.177187 98 14804ft 332kts
09-Aug-18 14:11 33.275775 -113.086133 98 14800ft 333kts
09-Aug-18 14:12 33.275395 -112.958229 85 14082ft 319kts
09-Aug-18 14:13 33.278116 -112.872108 86 13447ft 310kts
09-Aug-18 14:14 33.283874 -112.769950 81 12691ft 300kts
09-Aug-18 14:15 33.293256 -112.674989 81 11993ft 279kts
09-Aug-18 14:16 33.302075 -112.582662 81 11396ft 278kts
09-Aug-18 14:17 33.310608 -112.491546 81 10796ft 274kts
09-Aug-18 14:18 33.318890 -112.401926 81 10187ft 273kts
09-Aug-18 14:19 33.327097 -112.312331 82 9580ft 263kts
09-Aug-18 14:20 33.334795 -112.228069 82 8962ft 249kts
09-Aug-18 14:21 33.342234 -112.146070 82 8364ft 246kts
09-Aug-18 14:22 33.347334 -112.067685 89 8289ft 245kts
09-Aug-18 14:23 33.346274 -111.985748 89 7661ft 248kts
09-Aug-18 14:24 33.345650 -111.904238 87 7067ft 240kts
09-Aug-18 14:25 33.346482 -111.824496 87 6241ft 236kts
09-Aug-18 14:26 33.347138 -111.751723 87 5190ft 206kts
09-Aug-18 14:27 33.376999 -111.710576 1 5041ft 196kts
09-Aug-18 14:28 33.431183 -111.709032 359 4422ft 193kts
09-Aug-18 14:29 33.467355 -111.736050 251 3697ft 194kts
09-Aug-18 14:30 33.441554 -111.792454 261 3028ft 187kts
09-Aug-18 14:31 33.440762 -111.852842 272 3030ft 170kts
09-Aug-18 14:32 33.440789 -111.906545 270 2283ft 149kts
09-Aug-18 14:33 33.440830 -111.956805 271 1669ft 150kts
09-Aug-18 14:34 33.440847 -112.005617 270 1131ft 113kts
09-Aug-18 14:35 33.439951 -112.016862 141 1124ft 1kts
09-Aug-18 14:36 33.439751 -112.012989 89 1127ft 19kts
09-Aug-18 14:37 33.439745 -112.005744 89 1130ft 21kts
09-Aug-18 14:38 33.439045 -112.001642 90 1133ft 15kts
09-Aug-18 14:39 33.437670 -111.998002 152 1134ft 8kts
09-Aug-18 14:40 33.437523 -111.997381 92 1133ft 0kts

Navigation Log

Ident Type
Flight plan parsing failed, navigation log unavailable